This is the latest recevied weather packets stored in our database for station/object HA9OZD-18. If no packets are shown the sender has not sent any weather packets the latest 10 day(s).
| Time | Temp. | Humidity | Pressure | Rain* | Wind** | Luminosity | Snow |
|---|---|---|---|---|---|---|---|
| 1777492358 | 1.67° C | 37% | 1022 hPa | - | - | - | - |
| 1777488757 | 1.67° C | 42% | 1021.5 hPa | - | - | - | - |
| 1777485157 | 2.78° C | 42% | 1020.8 hPa | - | - | - | - |
| 1777481557 | 3.33° C | 41% | 1020.6 hPa | - | - | - | - |
| 1777477957 | 5.56° C | 38% | 1020.4 hPa | - | - | - | - |
| 1777474356 | 7.22° C | 34% | 1020.2 hPa | - | - | - | - |
| 1777470759 | 11.11° C | 28% | 1020.1 hPa | - | - | - | - |
| 1777467159 | 18.89° C | 18% | 1020.2 hPa | - | - | - | - |
| 1777463558 | 12.78° C | 24% | 1020.4 hPa | - | - | - | - |
| 1777459958 | 11.67° C | 25% | 1020.7 hPa | - | - | - | - |
| 1777456358 | 10.56° C | 27% | 1020.7 hPa | - | - | - | - |
| 1777452757 | 8.33° C | 30% | 1020.8 hPa | - | - | - | - |
| 1777449157 | 6.11° C | 31% | 1020.8 hPa | - | - | - | - |
| 1777445557 | 3.89° C | 35% | 1020.4 hPa | - | - | - | - |
| 1777441957 | 2.78° C | 39% | 1020.2 hPa | - | - | - | - |
| 1777438390 | 0.56° C | 42% | 1019.9 hPa | - | - | - | - |
| 1777438357 | 0.56° C | 42% | 1019.9 hPa | - | - | - | - |
| 1777434756 | 0° C | 44% | 1019.6 hPa | - | - | - | - |
| 1777431156 | 0° C | 43% | 1019.4 hPa | - | - | - | - |
| 1777427556 | 0.56° C | 42% | 1019.5 hPa | - | - | - | - |
| 1777423955 | 1.11° C | 39% | 1019.5 hPa | - | - | - | - |
| 1777420355 | 1.67° C | 36% | 1019.6 hPa | - | - | - | - |
| 1777416752 | 1.67° C | 34% | 1019.9 hPa | - | - | - | - |
| 1777413152 | 2.22° C | 35% | 1020 hPa | - | - | - | - |
| 1777409552 | 3.33° C | 36% | 1019.8 hPa | - | - | - | - |
* Rain since midnight (hover to see other rain measurements)
** Current wind speed in m/s (hover to see current wind gust speed)